Time;durP1;ratioP1;P1;durP2;ratioP2;P2;SDS_P1;SDS_P2;PMS_P1;PMS_P2;Temp;Humidity;BMP_temperature;BMP_pressure;BME280_temperature;BME280_humidity;BME280_pressure;Samples;Min_cycle;Max_cycle;Signal;HPM_P1;HPM_P2
2021/06/28 00:02:12;;;;;;;3.70;3.30;;;;;;;16.41;64.15;99839.78;5077443;28;20049;-54
2021/06/28 00:04:38;;;;;;;6.45;4.07;;;;;;;16.40;64.44;99837.19;5077380;28;20102;-54
2021/06/28 00:07:04;;;;;;;8.00;4.55;;;;;;;16.38;65.10;99841.69;5076413;28;20057;-54
2021/06/28 00:09:30;;;;;;;6.25;4.63;;;;;;;16.34;65.43;99833.03;5077180;28;20499;-54
2021/06/28 00:11:56;;;;;;;6.75;4.47;;;;;;;16.33;65.42;99826.91;5093346;28;20056;-55
2021/06/28 00:14:21;;;;;;;5.55;4.70;;;;;;;16.29;65.72;99829.78;5076976;28;20044;-55
2021/06/28 00:16:47;;;;;;;7.32;5.47;;;;;;;16.26;65.74;99838.72;5077311;28;20125;-54
2021/06/28 00:19:13;;;;;;;8.93;5.28;;;;;;;16.24;65.60;99831.78;5077067;28;20048;-55
2021/06/28 00:21:39;;;;;;;6.88;4.95;;;;;;;16.18;65.83;99835.56;5076979;28;20110;-55
2021/06/28 00:24:06;;;;;;;5.13;4.28;;;;;;;16.14;65.87;99844.56;5077124;28;20044;-54
2021/06/28 00:26:32;;;;;;;7.70;4.75;;;;;;;16.08;66.05;99835.13;5076623;28;20421;-54
2021/06/28 00:28:58;;;;;;;4.95;4.45;;;;;;;16.06;66.23;99834.38;5077120;28;20055;-55
2021/06/28 00:31:23;;;;;;;4.38;3.55;;;;;;;16.03;66.49;99838.94;5077386;28;20106;-54
2021/06/28 00:33:49;;;;;;;6.43;4.40;;;;;;;16.00;66.37;99839.94;5076917;28;20051;-55
2021/06/28 00:36:15;;;;;;;4.85;4.28;;;;;;;15.98;66.94;99840.94;5076687;28;20048;-55
2021/06/28 00:38:41;;;;;;;6.18;4.65;;;;;;;15.96;66.88;99835.75;5076647;28;20052;-55
2021/06/28 00:41:07;;;;;;;5.45;4.43;;;;;;;15.94;66.77;99839.38;5076834;28;20040;-55
2021/06/28 00:43:32;;;;;;;6.78;4.63;;;;;;;15.91;67.06;99840.38;5076773;28;20048;-55
2021/06/28 00:45:58;;;;;;;5.55;4.13;;;;;;;15.87;66.99;99831.72;5077058;28;20041;-55
2021/06/28 00:48:24;;;;;;;5.82;4.43;;;;;;;15.87;67.09;99833.53;5075626;28;20044;-55
2021/06/28 00:50:51;;;;;;;6.63;4.47;;;;;;;15.85;66.96;99836.22;5076696;28;20063;-55
2021/06/28 00:53:18;;;;;;;4.40;4.00;;;;;;;15.84;66.89;99833.66;5076354;28;20040;-55
2021/06/28 00:55:44;;;;;;;6.95;4.03;;;;;;;15.80;66.70;99832.94;5076582;28;20037;-55
2021/06/28 00:58:11;;;;;;;4.85;3.58;;;;;;;15.76;66.75;99839.31;5076895;28;20044;-55
2021/06/28 01:00:36;;;;;;;4.88;3.50;;;;;;;15.72;66.78;99840.34;5076555;28;20045;-55
2021/06/28 01:03:03;;;;;;;6.90;4.13;;;;;;;15.70;66.99;99836.09;5076193;28;20389;-55
2021/06/28 01:05:31;;;;;;;5.10;4.32;;;;;;;15.68;66.83;99843.22;5076495;28;20060;-55
2021/06/28 01:07:57;;;;;;;5.30;3.88;;;;;;;15.62;66.80;99839.88;5076444;28;20048;-54
2021/06/28 01:10:24;;;;;;;6.05;4.38;;;;;;;15.60;66.67;99843.53;5076153;28;20052;-55
2021/06/28 01:12:50;;;;;;;5.53;4.05;;;;;;;15.56;66.71;99840.16;5075432;28;20357;-54
2021/06/28 01:15:16;;;;;;;6.60;3.80;;;;;;;15.52;66.54;99843.88;5075787;28;20079;-54
2021/06/28 01:17:42;;;;;;;4.68;4.22;;;;;;;15.52;67.22;99837.72;5076006;28;20445;-54
2021/06/28 01:20:12;;;;;;;6.43;4.43;;;;;;;15.50;66.93;99843.09;5076296;28;20114;-54
2021/06/28 01:22:40;;;;;;;5.35;4.50;;;;;;;15.48;67.19;99844.94;5076289;28;20117;-55
2021/06/28 01:25:07;;;;;;;5.70;4.95;;;;;;;15.48;67.31;99838.81;5076231;28;20044;-55
2021/06/28 01:27:33;;;;;;;8.70;5.90;;;;;;;15.43;67.49;99839.84;5075888;28;20060;-54
2021/06/28 01:29:59;;;;;;;9.55;6.10;;;;;;;15.42;67.81;99835.50;5076233;28;20422;-54
2021/06/28 01:32:25;;;;;;;8.07;5.28;;;;;;;15.38;68.24;99839.22;5092081;28;20052;-54
2021/06/28 01:34:51;;;;;;;5.97;4.68;;;;;;;15.37;67.83;99842.78;5076077;28;20040;-54
2021/06/28 01:37:23;;;;;;;5.63;4.72;;;;;;;15.37;68.16;99841.91;5076381;28;20071;-54
2021/06/28 01:39:51;;;;;;;5.43;4.60;;;;;;;15.32;68.11;99831.56;5076139;28;20056;-55
2021/06/28 01:42:16;;;;;;;5.05;4.55;;;;;;;15.31;67.77;99840.41;5076317;28;20162;-55
2021/06/28 01:44:42;;;;;;;6.03;4.60;;;;;;;15.29;67.71;99833.47;5075747;28;20068;-55
2021/06/28 01:47:08;;;;;;;5.40;4.35;;;;;;;15.27;67.54;99835.31;5076053;28;20053;-55
2021/06/28 01:49:34;;;;;;;7.45;5.35;;;;;;;15.25;67.81;99835.41;5075725;28;20437;-55
2021/06/28 01:51:59;;;;;;;7.78;5.15;;;;;;;15.22;67.89;99839.94;5075999;28;20053;-54
2021/06/28 01:54:31;;;;;;;5.97;5.22;;;;;;;15.22;67.98;99839.94;5075918;28;20040;-54
2021/06/28 01:56:58;;;;;;;5.35;4.70;;;;;;;15.16;67.99;99834.00;5075633;28;20072;-54
2021/06/28 01:59:25;;;;;;;6.35;4.75;;;;;;;15.13;67.72;99831.50;5075895;28;20053;-55
2021/06/28 02:01:51;;;;;;;6.55;4.88;;;;;;;15.09;67.84;99835.19;5075637;28;20036;-55
2021/06/28 02:04:18;;;;;;;7.35;4.95;;;;;;;15.05;68.00;99836.25;5075846;28;20045;-54
2021/06/28 02:06:43;;;;;;;5.97;5.20;;;;;;;15.00;68.51;99840.88;5075791;28;20080;-54
2021/06/28 02:09:10;;;;;;;6.53;5.13;;;;;;;14.94;68.46;99835.84;5075577;28;20357;-54
2021/06/28 02:11:35;;;;;;;6.80;4.75;;;;;;;14.91;68.80;99841.25;5075779;28;20052;-54
2021/06/28 02:14:01;;;;;;;6.85;5.47;;;;;;;14.87;68.76;99831.75;5075707;28;20425;-54
2021/06/28 02:16:27;;;;;;;6.63;5.40;;;;;;;14.84;69.19;99823.97;5075507;28;20349;-54
2021/06/28 02:18:53;;;;;;;7.53;5.10;;;;;;;14.81;69.04;99819.69;5075693;28;20063;-54
2021/06/28 02:21:18;;;;;;;8.07;4.90;;;;;;;14.83;69.53;99828.41;5075413;28;20049;-54
2021/06/28 02:23:44;;;;;;;9.23;5.55;;;;;;;14.85;69.63;99825.69;5075670;28;20044;-54
2021/06/28 02:26:11;;;;;;;6.20;4.88;;;;;;;14.87;69.53;99832.63;5076471;28;20114;-54
2021/06/28 02:28:40;;;;;;;7.57;5.57;;;;;;;14.89;69.54;99830.78;5079405;28;20127;-54
2021/06/28 02:31:07;;;;;;;8.90;5.32;;;;;;;14.87;69.47;99824.72;5079344;28;20049;-54
2021/06/28 02:33:33;;;;;;;9.77;5.88;;;;;;;14.89;69.41;99827.28;5079219;28;20122;-54
2021/06/28 02:35:59;;;;;;;7.88;6.00;;;;;;;14.89;69.92;99828.16;5078963;28;20056;-54
2021/06/28 02:38:25;;;;;;;8.70;5.90;;;;;;;14.91;70.46;99826.28;5078030;28;20445;-54
2021/06/28 02:40:51;;;;;;;7.75;6.28;;;;;;;14.93;70.53;99826.22;5095213;28;20045;-54
2021/06/28 02:43:17;;;;;;;7.00;5.10;;;;;;;14.96;70.42;99836.66;5095114;28;20067;-54
2021/06/28 02:45:43;;;;;;;7.35;5.20;;;;;;;14.98;70.54;99829.50;5079111;28;20067;-54
2021/06/28 02:48:09;;;;;;;7.80;5.47;;;;;;;14.99;70.97;99825.97;5079557;28;20053;-54
2021/06/28 02:50:36;;;;;;;6.82;5.00;;;;;;;15.02;71.02;99835.53;5078999;28;20059;-54
2021/06/28 02:53:02;;;;;;;6.97;5.20;;;;;;;15.03;71.42;99834.59;5094878;28;20055;-54
2021/06/28 02:55:27;;;;;;;7.10;5.57;;;;;;;15.06;71.39;99818.66;5078082;28;20123;-54
2021/06/28 02:57:53;;;;;;;7.28;5.07;;;;;;;15.08;70.91;99819.44;5078868;28;20131;-54
2021/06/28 03:00:19;;;;;;;8.90;5.50;;;;;;;15.11;71.19;99816.66;5078628;28;20044;-54
2021/06/28 03:02:45;;;;;;;8.38;5.70;;;;;;;15.14;71.24;99819.16;5078776;28;20102;-54
2021/06/28 03:05:11;;;;;;;8.02;5.93;;;;;;;15.18;70.87;99815.50;5078788;28;20048;-54
2021/06/28 03:07:37;;;;;;;6.43;5.63;;;;;;;15.24;70.56;99811.69;5078471;28;20052;-54
2021/06/28 03:10:12;;;;;;;8.38;4.97;;;;;;;15.31;70.86;99818.44;5078463;28;20048;-54
2021/06/28 03:12:39;;;;;;;6.72;5.38;;;;;;;15.33;70.96;99814.78;5077750;28;20059;-54
2021/06/28 03:15:06;;;;;;;7.40;5.15;;;;;;;15.41;70.78;99817.09;5078495;28;20052;-54
2021/06/28 03:17:32;;;;;;;6.75;5.43;;;;;;;15.49;70.67;99822.03;5078766;28;20044;-54
2021/06/28 03:19:58;;;;;;;8.55;5.22;;;;;;;15.56;70.33;99819.03;5078488;28;20048;-54
2021/06/28 03:22:24;;;;;;;7.85;5.60;;;;;;;15.63;70.25;99809.94;5078424;28;20064;-54
2021/06/28 03:24:50;;;;;;;5.63;5.03;;;;;;;15.70;70.27;99812.34;5078101;28;20064;-54
2021/06/28 03:27:16;;;;;;;8.40;5.32;;;;;;;15.80;70.38;99821.53;5078062;28;20052;-54
2021/06/28 03:29:41;;;;;;;8.18;5.78;;;;;;;15.87;70.33;99823.81;5078329;28;20479;-54
2021/06/28 03:32:07;;;;;;;9.93;5.20;;;;;;;15.94;70.33;99816.44;5077916;28;20074;-54
2021/06/28 03:34:33;;;;;;;6.65;4.65;;;;;;;16.02;70.16;99816.97;5077873;28;20076;-54
2021/06/28 03:36:59;;;;;;;7.88;4.97;;;;;;;16.07;70.75;99820.22;5077289;28;20061;-54
2021/06/28 03:39:24;;;;;;;7.85;5.10;;;;;;;16.15;70.96;99819.84;5077576;28;20330;-54
2021/06/28 03:41:50;;;;;;;8.50;5.05;;;;;;;16.23;70.97;99827.44;5078075;28;20137;-54
2021/06/28 03:44:16;;;;;;;7.50;4.88;;;;;;;16.31;71.37;99822.63;5078031;28;20040;-54
2021/06/28 03:46:41;;;;;;;6.78;5.13;;;;;;;16.43;71.37;99818.53;5078157;28;20051;-54
2021/06/28 03:49:08;;;;;;;5.05;4.35;;;;;;;16.52;71.27;99812.81;5078407;28;20052;-54
2021/06/28 03:51:33;;;;;;;4.28;3.88;;;;;;;16.64;71.46;99814.84;5077624;28;20044;-54
2021/06/28 03:53:59;;;;;;;4.55;4.00;;;;;;;16.76;71.27;99811.59;5077735;28;20048;-54
2021/06/28 03:56:25;;;;;;;6.47;4.10;;;;;;;16.88;71.00;99810.13;5077747;28;20326;-54
2021/06/28 03:58:51;;;;;;;6.30;4.15;;;;;;;17.00;70.80;99814.78;5077745;28;20052;-54
2021/06/28 04:01:16;;;;;;;5.15;4.55;;;;;;;17.19;71.06;99813.81;5077325;28;20052;-54
2021/06/28 04:03:42;;;;;;;6.00;4.65;;;;;;;17.37;70.37;99823.44;5077816;28;20045;-54
2021/06/28 04:06:08;;;;;;;5.05;4.35;;;;;;;17.51;69.91;99820.91;5077553;28;20052;-54
2021/06/28 04:08:35;;;;;;;4.35;3.95;;;;;;;17.75;69.33;99820.56;5077527;28;20060;-54
2021/06/28 04:11:01;;;;;;;6.72;4.72;;;;;;;18.07;69.03;99825.88;5077231;28;20086;-54
2021/06/28 04:13:26;;;;;;;4.18;3.75;;;;;;;18.43;68.51;99817.69;5077352;28;20497;-54
2021/06/28 04:15:52;;;;;;;5.70;3.80;;;;;;;18.83;68.14;99820.69;5076758;28;20110;-54
2021/06/28 04:18:19;;;;;;;5.95;3.90;;;;;;;19.22;67.57;99824.56;5077310;28;20048;-54
2021/06/28 04:20:44;;;;;;;4.30;3.05;;;;;;;19.53;66.55;99820.88;5078334;28;20315;-54
2021/06/28 04:23:10;;;;;;;5.53;3.67;;;;;;;19.74;66.18;99829.38;5076056;28;20409;-54
2021/06/28 04:25:36;;;;;;;4.45;3.47;;;;;;;19.89;65.82;99827.53;5076934;28;20051;-54
2021/06/28 04:28:02;;;;;;;4.97;4.20;;;;;;;19.93;65.42;99829.91;5076925;28;20052;-54
2021/06/28 04:30:27;;;;;;;7.13;4.35;;;;;;;20.00;65.27;99830.38;5076837;28;20349;-54
2021/06/28 04:32:53;;;;;;;5.55;4.45;;;;;;;20.07;65.49;99829.88;5077048;28;20052;-54
2021/06/28 04:35:21;;;;;;;5.38;4.25;;;;;;;20.17;65.17;99839.94;5076929;28;20087;-54
2021/06/28 04:37:46;;;;;;;7.88;4.32;;;;;;;20.19;65.40;99828.25;5077273;28;20378;-55
2021/06/28 04:40:14;;;;;;;5.53;4.10;;;;;;;20.27;65.40;99838.38;5076592;28;20449;-54
2021/06/28 04:42:40;;;;;;;6.13;4.00;;;;;;;20.36;65.24;99835.13;5076515;28;20059;-54
2021/06/28 04:45:07;;;;;;;5.28;3.85;;;;;;;20.44;65.66;99832.84;5076812;28;20040;-54
2021/06/28 04:47:33;;;;;;;5.95;3.40;;;;;;;20.54;65.66;99838.44;5076679;28;20052;-55
2021/06/28 04:50:02;;;;;;;4.13;3.50;;;;;;;20.63;65.38;99839.63;5075573;28;20052;-54
2021/06/28 04:52:31;;;;;;;8.20;4.20;;;;;;;20.72;65.26;99839.00;5076415;28;20053;-55
2021/06/28 04:54:57;;;;;;;7.80;3.80;;;;;;;20.72;64.97;99839.84;5076554;28;20082;-55
2021/06/28 04:57:23;;;;;;;4.35;3.60;;;;;;;20.74;64.71;99843.28;5075662;28;20052;-55
2021/06/28 04:59:48;;;;;;;6.40;3.72;;;;;;;20.77;64.83;99837.75;5076567;28;20154;-54
2021/06/28 05:02:15;;;;;;;5.35;3.65;;;;;;;20.82;64.34;99845.41;5076240;28;20445;-54
2021/06/28 05:04:41;;;;;;;4.47;3.50;;;;;;;20.86;64.21;99836.25;5076163;28;20489;-54
2021/06/28 05:07:07;;;;;;;4.18;3.28;;;;;;;20.92;63.92;99835.00;5076231;28;20127;-55
2021/06/28 05:09:32;;;;;;;4.45;3.33;;;;;;;20.98;63.16;99834.59;5075350;28;20037;-55
2021/06/28 05:11:58;;;;;;;7.22;3.83;;;;;;;21.08;63.26;99837.50;5076397;28;20048;-54
2021/06/28 05:14:26;;;;;;;6.07;4.55;;;;;;;21.17;63.01;99836.88;5076332;28;20041;-55
2021/06/28 05:16:52;;;;;;;5.82;3.35;;;;;;;21.29;62.29;99832.53;5076091;28;20052;-55
2021/06/28 05:19:18;;;;;;;4.65;3.65;;;;;;;21.40;62.10;99835.31;5076060;28;20037;-55
2021/06/28 05:21:44;;;;;;;6.03;3.88;;;;;;;21.55;62.12;99831.59;5092232;28;20036;-55
2021/06/28 05:24:09;;;;;;;4.15;3.47;;;;;;;21.84;62.27;99837.53;5075967;28;20068;-55
2021/06/28 05:26:35;;;;;;;6.97;3.58;;;;;;;22.30;61.86;99834.22;5076098;28;20052;-55
2021/06/28 05:29:01;;;;;;;10.35;3.65;;;;;;;22.67;60.47;99830.63;5092526;28;20413;-55
2021/06/28 05:31:27;;;;;;;2.92;2.70;;;;;;;22.92;58.10;99827.81;5076196;28;20059;-55
2021/06/28 05:33:53;;;;;;;3.85;3.15;;;;;;;23.07;56.87;99826.69;5075766;28;20053;-55
2021/06/28 05:36:20;;;;;;;3.80;3.38;;;;;;;23.21;56.29;99832.78;5076165;28;20052;-55
2021/06/28 05:38:46;;;;;;;2.90;2.38;;;;;;;23.36;56.65;99836.09;5075179;28;20048;-55
2021/06/28 05:41:11;;;;;;;3.13;2.83;;;;;;;23.64;56.34;99837.44;5076123;28;20062;-55
2021/06/28 05:43:37;;;;;;;4.07;2.97;;;;;;;24.08;55.51;99836.63;5075842;28;20441;-55
2021/06/28 05:46:03;;;;;;;3.63;3.20;;;;;;;24.35;53.59;99838.88;5075817;28;20040;-55
2021/06/28 05:48:28;;;;;;;3.00;2.72;;;;;;;24.44;53.72;99843.50;5074905;28;20040;-56
2021/06/28 05:50:55;;;;;;;3.20;2.70;;;;;;;24.52;53.49;99842.84;5075973;28;20056;-56
2021/06/28 05:53:21;;;;;;;3.05;2.63;;;;;;;24.73;52.73;99842.88;5075893;28;20052;-56
2021/06/28 05:55:47;;;;;;;3.60;2.90;;;;;;;25.17;51.95;99843.69;5075963;28;20071;-56
2021/06/28 05:58:15;;;;;;;3.47;2.90;;;;;;;25.58;50.93;99844.66;5075941;28;20052;-56
2021/06/28 06:00:41;;;;;;;3.33;2.55;;;;;;;25.88;49.29;99847.34;5075996;28;20041;-56
2021/06/28 06:03:07;;;;;;;4.88;2.90;;;;;;;26.16;49.49;99846.72;5079901;28;20055;-56
2021/06/28 06:05:32;;;;;;;3.13;2.83;;;;;;;26.50;49.08;99852.63;5079877;28;20369;-56
2021/06/28 06:07:58;;;;;;;9.35;2.55;;;;;;;26.66;48.65;99841.31;5079539;28;20048;-56
2021/06/28 06:10:24;;;;;;;2.60;2.40;;;;;;;26.95;47.97;99838.63;5079726;28;20048;-56
2021/06/28 06:12:50;;;;;;;4.30;2.53;;;;;;;27.27;45.74;99844.56;5079461;28;20052;-57
2021/06/28 06:15:16;;;;;;;3.78;2.65;;;;;;;27.42;45.70;99847.63;5079376;28;20037;-56
2021/06/28 06:17:42;;;;;;;3.92;2.22;;;;;;;27.56;44.70;99837.38;5079046;28;20040;-56
2021/06/28 06:20:09;;;;;;;3.83;2.75;;;;;;;27.87;44.25;99849.63;5079584;28;20059;-56
2021/06/28 06:22:35;;;;;;;2.50;2.30;;;;;;;28.11;42.99;99854.47;5078672;28;20048;-57
2021/06/28 06:25:00;;;;;;;2.50;2.30;;;;;;;28.32;42.77;99854.19;5079260;28;20154;-57
2021/06/28 06:27:26;;;;;;;2.72;2.33;;;;;;;28.49;42.06;99854.41;5078366;28;20078;-56
2021/06/28 06:29:52;;;;;;;3.40;1.95;;;;;;;28.63;41.13;99861.94;5079417;28;20080;-57
2021/06/28 06:32:18;;;;;;;2.65;2.30;;;;;;;28.84;41.48;99867.91;5079030;28;20452;-57
2021/06/28 06:34:44;;;;;;;3.65;2.58;;;;;;;29.14;40.67;99860.41;5095334;28;20044;-57
2021/06/28 06:37:09;;;;;;;2.95;1.85;;;;;;;29.43;41.00;99868.22;5079288;28;20492;-57
2021/06/28 06:39:35;;;;;;;2.85;2.13;;;;;;;29.66;40.01;99865.03;5079252;28;20402;-60
2021/06/28 06:42:01;;;;;;;2.20;2.00;;;;;;;29.87;39.34;99868.19;5079118;28;20053;-59
2021/06/28 06:44:27;;;;;;;2.17;1.70;;;;;;;29.95;38.44;99865.50;5077873;28;20330;-59
2021/06/28 06:46:53;;;;;;;2.83;1.63;;;;;;;29.90;38.21;99861.59;5077091;28;20448;-59
2021/06/28 06:49:19;;;;;;;2.60;1.98;;;;;;;29.89;38.06;99865.31;5077063;28;20044;-59
2021/06/28 06:51:45;;;;;;;1.90;1.70;;;;;;;30.04;38.30;99882.59;5077118;28;20036;-59
2021/06/28 06:54:11;;;;;;;5.00;1.77;;;;;;;30.12;37.93;99871.81;5075817;28;20348;-59
2021/06/28 06:56:37;;;;;;;4.03;2.30;;;;;;;30.19;36.43;99874.75;5077018;28;20048;-60
2021/06/28 06:59:03;;;;;;;2.55;1.73;;;;;;;30.15;36.33;99871.50;5077188;28;20056;-59
2021/06/28 07:01:31;;;;;;;3.42;1.48;;;;;;;30.29;36.33;99880.88;5076896;28;20067;-59
2021/06/28 07:03:57;;;;;;;2.10;1.90;;;;;;;30.49;37.10;99878.72;5075648;28;20123;-59
2021/06/28 07:06:23;;;;;;;4.68;2.22;;;;;;;30.60;36.66;99877.56;5078886;28;20064;-59
2021/06/28 07:08:49;;;;;;;2.60;2.20;;;;;;;30.61;35.91;99880.09;5078382;28;20053;-60
2021/06/28 07:11:14;;;;;;;2.20;2.00;;;;;;;30.65;35.91;99878.78;5078669;28;20079;-60
2021/06/28 07:13:43;;;;;;;7.38;6.78;;;;;;;30.65;36.37;99886.03;5077570;28;20380;-60
2021/06/28 07:16:08;;;;;;;4.85;4.45;;;;;;;30.57;35.47;99886.00;5078620;28;20451;-60
2021/06/28 07:18:34;;;;;;;5.22;4.82;;;;;;;30.44;34.95;99891.88;5078525;28;20155;-60
2021/06/28 07:21:00;;;;;;;3.80;2.90;;;;;;;30.24;35.45;99881.34;5078495;28;20520;-60
2021/06/28 07:23:26;;;;;;;1.92;1.60;;;;;;;30.18;35.90;99878.44;5078253;28;20041;-59
2021/06/28 07:25:52;;;;;;;2.30;2.10;;;;;;;30.20;35.31;99884.56;5078106;28;20417;-60
2021/06/28 07:28:18;;;;;;;2.25;1.73;;;;;;;30.30;36.21;99890.66;5077972;28;20072;-59
2021/06/28 07:30:43;;;;;;;2.70;1.80;;;;;;;30.43;36.81;99887.50;5078289;28;20053;-60
2021/06/28 07:33:09;;;;;;;1.73;1.55;;;;;;;30.51;36.81;99888.34;5077894;28;20396;-60
2021/06/28 07:35:35;;;;;;;4.05;1.67;;;;;;;30.70;36.41;99892.59;5078195;28;20045;-62
2021/06/28 07:38:01;;;;;;;3.47;1.88;;;;;;;30.84;35.50;99890.28;5078166;28;20122;-62
2021/06/28 07:40:27;;;;;;;1.80;1.42;;;;;;;30.76;33.94;99896.50;5077888;28;20049;-62
2021/06/28 07:42:52;;;;;;;5.45;1.75;;;;;;;30.86;35.35;99891.81;5077810;28;20060;-60
2021/06/28 07:45:19;;;;;;;4.22;1.70;;;;;;;31.05;35.56;99887.97;5077711;28;20044;-60
2021/06/28 07:47:45;;;;;;;1.92;1.83;;;;;;;31.22;35.14;99891.50;5077080;28;20113;-59
2021/06/28 07:50:11;;;;;;;4.32;1.88;;;;;;;31.26;34.24;99889.28;5077613;28;20460;-62
2021/06/28 07:52:37;;;;;;;2.35;2.15;;;;;;;31.31;34.88;99892.34;5077571;28;20357;-59
2021/06/28 07:55:04;;;;;;;1.75;1.60;;;;;;;31.47;34.59;99884.25;5077772;28;20041;-59
2021/06/28 07:57:30;;;;;;;3.40;1.60;;;;;;;31.63;33.89;99888.78;5078318;28;20048;-60
2021/06/28 07:59:56;;;;;;;2.65;1.98;;;;;;;31.63;33.83;99889.63;5077712;28;20081;-61
2021/06/28 08:02:22;;;;;;;1.95;1.75;;;;;;;31.74;33.41;99885.69;5077422;28;20036;-61
2021/06/28 08:04:48;;;;;;;2.40;1.75;;;;;;;31.84;33.69;99880.09;5077476;28;20322;-61
2021/06/28 08:07:14;;;;;;;2.30;2.10;;;;;;;31.96;33.61;99883.31;5077730;28;20468;-61
2021/06/28 08:09:40;;;;;;;3.92;1.80;;;;;;;31.99;32.30;99872.97;5077529;28;20059;-61
2021/06/28 08:12:06;;;;;;;2.00;1.70;;;;;;;31.96;32.90;99873.31;5076917;28;20044;-61
2021/06/28 08:14:32;;;;;;;1.90;1.70;;;;;;;31.94;32.54;99874.50;5077378;28;20053;-61
2021/06/28 08:16:58;;;;;;;1.90;1.80;;;;;;;31.87;32.68;99875.16;5077437;28;20067;-62
2021/06/28 08:19:23;;;;;;;4.45;1.27;;;;;;;31.89;32.58;99878.59;5077165;28;20048;-62
2021/06/28 08:21:51;;;;;;;2.90;1.48;;;;;;;31.99;32.75;99872.13;5077339;28;20130;-61
2021/06/28 08:24:17;;;;;;;2.25;1.80;;;;;;;32.04;32.71;99878.69;5077159;28;20060;-62
2021/06/28 08:26:45;;;;;;;1.80;1.70;;;;;;;32.21;32.36;99873.19;5077202;28;20446;-61
2021/06/28 08:29:10;;;;;;;2.30;1.50;;;;;;;32.33;31.57;99882.63;5077230;28;20071;-61
2021/06/28 08:31:37;;;;;;;6.97;1.67;;;;;;;32.43;32.04;99882.44;5077122;28;20044;-61
2021/06/28 08:34:03;;;;;;;3.55;1.88;;;;;;;32.48;31.30;99880.88;5077086;28;20105;-62
2021/06/28 08:36:29;;;;;;;2.80;2.03;;;;;;;32.53;30.87;99883.03;5077534;28;20052;-62
2021/06/28 08:38:56;;;;;;;1.90;1.60;;;;;;;32.67;30.63;99874.16;5077032;28;20056;-61
2021/06/28 08:41:23;;;;;;;1.55;1.45;;;;;;;32.80;29.59;99879.00;5076657;28;20110;-62
2021/06/28 08:43:49;;;;;;;3.47;1.50;;;;;;;32.89;30.80;99880.63;5059186;28;20127;-62
2021/06/28 08:46:15;;;;;;;2.75;1.90;;;;;;;33.04;29.61;99880.69;5076853;28;20464;-62
2021/06/28 08:48:42;;;;;;;3.55;1.70;;;;;;;33.08;29.71;99871.16;5076472;28;20441;-62
2021/06/28 08:51:08;;;;;;;1.58;1.48;;;;;;;33.17;29.83;99883.63;5075825;28;20040;-62
2021/06/28 08:53:33;;;;;;;2.20;1.70;;;;;;;33.29;30.30;99884.03;5076245;28;20055;-61
2021/06/28 08:56:06;;;;;;;1.50;1.38;;;;;;;33.43;30.87;99868.81;5076676;28;20048;-61
2021/06/28 08:58:36;;;;;;;2.45;2.25;;;;;;;33.58;29.79;99871.59;5076662;28;20041;-67
2021/06/28 09:01:02;;;;;;;2.95;2.40;;;;;;;33.67;28.99;99873.16;5077088;28;20055;-62
2021/06/28 09:03:27;;;;;;;2.25;2.03;;;;;;;33.61;29.52;99876.66;5076143;28;20044;-63
2021/06/28 09:06:16;;;;;;;2.80;2.35;;;;;;;33.67;29.83;99867.72;5076263;28;20044;-62
2021/06/28 09:09:08;;;;;;;2.30;2.10;;;;;;;33.45;26.38;99859.47;5076235;28;20105;-62
2021/06/28 09:11:41;;;;;;;2.85;1.83;;;;;;;33.38;29.13;99868.53;5076998;28;20056;-62
2021/06/28 09:14:07;;;;;;;2.40;2.17;;;;;;;33.41;29.62;99865.41;5076927;28;20401;-62
2021/06/28 09:16:34;;;;;;;4.93;2.58;;;;;;;33.38;28.85;99857.69;5076399;28;20063;-62
2021/06/28 09:19:04;;;;;;;2.00;1.80;;;;;;;33.38;28.60;99855.81;5076064;28;20058;-62
2021/06/28 09:21:59;;;;;;;1.60;1.50;;;;;;;33.38;29.39;99860.41;5076438;28;20041;-62
2021/06/28 09:24:37;;;;;;;1.50;1.40;;;;;;;33.41;28.65;99855.44;5067237;28;20197;-62
2021/06/28 09:27:09;;;;;;;2.13;1.48;;;;;;;33.52;27.16;99856.88;5075305;28;20121;-62
2021/06/28 09:29:36;;;;;;;1.42;0.95;;;;;;;33.61;25.91;99861.19;5076221;28;20044;-62
2021/06/28 09:32:09;;;;;;;3.00;0.95;;;;;;;33.72;26.30;99863.44;5076226;28;20072;-63
2021/06/28 09:34:35;;;;;;;1.35;1.00;;;;;;;33.90;26.61;99859.50;5076092;28;20144;-51
2021/06/28 09:37:01;;;;;;;1.38;1.27;;;;;;;34.06;27.18;99859.34;5075392;28;20053;-50
2021/06/28 09:39:29;;;;;;;1.10;1.00;;;;;;;34.27;27.15;99865.84;5075849;28;20052;-51
2021/06/28 09:41:59;;;;;;;1.75;1.00;;;;;;;34.48;26.44;99870.47;5091778;28;20326;-51
2021/06/28 09:44:29;;;;;;;1.23;1.07;;;;;;;34.75;26.60;99856.16;5059242;28;20495;-51
2021/06/28 09:47:14;;;;;;;3.95;1.60;;;;;;;34.88;26.27;99866.34;5076087;28;20052;-50
2021/06/28 09:49:43;;;;;;;1.80;1.50;;;;;;;34.97;25.83;99864.31;5092181;28;20055;-50
2021/06/28 09:52:09;;;;;;;1.63;1.52;;;;;;;35.10;26.35;99853.56;5058720;28;20056;-51
2021/06/28 09:54:37;;;;;;;1.40;1.30;;;;;;;35.31;26.44;99852.69;5074821;28;20395;-51
2021/06/28 09:57:05;;;;;;;1.38;1.25;;;;;;;35.55;26.48;99837.81;5075695;28;20135;-51
2021/06/28 09:59:35;;;;;;;1.52;1.42;;;;;;;35.77;25.55;99842.13;5075965;28;20056;-51
2021/06/28 10:02:25;;;;;;;2.25;1.80;;;;;;;35.65;25.91;99832.00;5075692;28;20064;-51
2021/06/28 10:05:09;;;;;;;1.50;1.40;;;;;;;35.61;25.52;99828.84;5075938;28;20094;-51
2021/06/28 10:07:35;;;;;;;1.75;1.10;;;;;;;35.75;25.70;99822.44;5075599;28;20081;-51
2021/06/28 10:10:10;;;;;;;2.78;1.00;;;;;;;35.80;24.45;99819.94;5075891;28;20079;-51
2021/06/28 10:12:37;;;;;;;1.42;1.00;;;;;;;35.83;25.18;99823.31;5075705;28;20075;-50
2021/06/28 10:15:05;;;;;;;1.95;1.23;;;;;;;35.87;25.14;99822.69;5075752;28;20056;-51
2021/06/28 10:17:31;;;;;;;1.13;1.02;;;;;;;35.76;25.08;99824.13;5074847;28;20052;-51
2021/06/28 10:19:57;;;;;;;4.03;0.93;;;;;;;35.56;24.19;99804.94;5075135;28;20063;-51
2021/06/28 10:22:23;;;;;;;0.73;0.65;;;;;;;35.77;24.88;99822.22;5075463;28;20049;-50
2021/06/28 10:24:48;;;;;;;0.70;0.70;;;;;;;35.77;23.58;99823.06;5074869;28;20041;-51
2021/06/28 10:27:14;;;;;;;1.13;1.00;;;;;;;35.65;23.72;99824.66;5075696;28;20453;-51
2021/06/28 10:29:40;;;;;;;1.02;1.00;;;;;;;35.60;23.82;99829.88;5075642;28;20049;-51
2021/06/28 10:32:08;;;;;;;0.80;0.50;;;;;;;35.69;23.26;99823.25;5074741;28;20357;-51
2021/06/28 10:34:33;;;;;;;1.15;1.05;;;;;;;35.77;23.53;99822.22;5075532;28;20059;-50
2021/06/28 10:37:01;;;;;;;1.30;0.68;;;;;;;35.77;22.77;99833.13;5057893;28;20037;-51
2021/06/28 10:39:31;;;;;;;2.42;0.70;;;;;;;35.73;23.17;99826.41;5075582;28;20044;-50
2021/06/28 10:41:58;;;;;;;0.75;0.75;;;;;;;35.87;22.39;99822.69;5074449;28;20052;-51
2021/06/28 10:44:24;;;;;;;1.05;0.65;;;;;;;35.96;22.60;99826.94;5076298;28;20109;-51
2021/06/28 10:46:52;;;;;;;1.35;0.90;;;;;;;36.08;22.67;99820.94;5075827;28;20048;-51
2021/06/28 10:49:46;;;;;;;1.10;0.82;;;;;;;36.18;22.83;99821.41;5077857;28;20108;-51
2021/06/28 10:52:38;;;;;;;1.17;1.10;;;;;;;36.02;22.07;99820.69;5078215;28;20040;-51
2021/06/28 10:55:23;;;;;;;1.15;1.10;;;;;;;35.93;22.76;99824.59;5074164;28;20056;-50
2021/06/28 10:57:52;;;;;;;1.27;1.17;;;;;;;35.90;22.95;99816.84;5079011;28;20131;-51
2021/06/28 11:00:38;;;;;;;1.70;1.00;;;;;;;35.78;23.36;99819.31;5078629;28;20043;-51
2021/06/28 11:03:23;;;;;;;1.30;1.05;;;;;;;35.71;22.86;99812.97;5077721;28;20057;-51
2021/06/28 11:06:18;;;;;;;3.25;1.30;;;;;;;35.66;22.85;99817.38;5077621;28;20049;-50
2021/06/28 11:09:07;;;;;;;2.50;1.30;;;;;;;35.84;23.50;99820.38;5077736;28;20052;-51
2021/06/28 11:11:43;;;;;;;2.03;0.80;;;;;;;35.92;21.66;99811.22;5078800;28;20052;-51
2021/06/28 11:14:18;;;;;;;1.00;0.90;;;;;;;35.85;22.87;99818.47;5078364;28;20459;-51
2021/06/28 11:17:07;;;;;;;1.45;0.85;;;;;;;36.06;23.93;99823.03;5078780;28;20127;-51
2021/06/28 11:19:49;;;;;;;1.05;0.95;;;;;;;36.09;23.21;99815.28;5078907;28;20056;-51
2021/06/28 11:22:27;;;;;;;1.73;1.00;;;;;;;35.98;22.84;99813.97;5077396;28;20044;-51
2021/06/28 11:25:08;;;;;;;0.98;0.80;;;;;;;35.95;23.58;99811.63;5078521;28;20052;-51
2021/06/28 11:27:40;;;;;;;0.87;0.80;;;;;;;36.03;22.82;99814.19;5077981;28;20445;-50
2021/06/28 11:30:15;;;;;;;1.67;1.20;;;;;;;35.94;21.87;99814.53;5078614;28;20287;-51
2021/06/28 11:33:09;;;;;;;1.80;1.00;;;;;;;35.60;21.54;99810.84;5078064;28;20362;-51
2021/06/28 11:35:38;;;;;;;1.05;0.88;;;;;;;35.20;23.22;99816.00;5077979;28;20067;-50
2021/06/28 11:38:42;;;;;;;1.10;0.82;;;;;;;35.02;23.84;99812.88;5077645;28;20051;-51